sensor_id;sensor_type;location;lat;lon;timestamp;P1;durP1;ratioP1;P2;durP2;ratioP2
56537;SDS011;42435;53.292;6.000;2022-11-21T00:00:17;23.52;;;15.10;;
56537;SDS011;42435;53.292;6.000;2022-11-21T00:02:43;21.45;;;14.25;;
56537;SDS011;42435;53.292;6.000;2022-11-21T00:05:09;24.55;;;14.32;;
56537;SDS011;42435;53.292;6.000;2022-11-21T00:07:35;22.35;;;14.68;;
56537;SDS011;42435;53.292;6.000;2022-11-21T00:10:04;24.13;;;15.18;;
56537;SDS011;42435;53.292;6.000;2022-11-21T00:12:33;25.75;;;16.23;;
56537;SDS011;42435;53.292;6.000;2022-11-21T00:14:59;24.35;;;15.13;;
56537;SDS011;42435;53.292;6.000;2022-11-21T00:17:24;24.65;;;15.88;;
56537;SDS011;42435;53.292;6.000;2022-11-21T00:19:50;25.60;;;15.80;;
56537;SDS011;42435;53.292;6.000;2022-11-21T00:22:15;25.30;;;14.73;;
56537;SDS011;42435;53.292;6.000;2022-11-21T00:24:41;22.50;;;14.10;;
56537;SDS011;42435;53.292;6.000;2022-11-21T00:27:06;21.38;;;14.85;;
56537;SDS011;42435;53.292;6.000;2022-11-21T00:29:32;23.83;;;14.77;;
56537;SDS011;42435;53.292;6.000;2022-11-21T00:31:57;19.33;;;12.95;;
56537;SDS011;42435;53.292;6.000;2022-11-21T00:34:23;24.02;;;15.32;;
56537;SDS011;42435;53.292;6.000;2022-11-21T00:36:48;25.50;;;15.90;;
56537;SDS011;42435;53.292;6.000;2022-11-21T00:39:14;25.65;;;15.05;;
56537;SDS011;42435;53.292;6.000;2022-11-21T00:41:39;23.83;;;14.48;;
56537;SDS011;42435;53.292;6.000;2022-11-21T00:44:06;24.05;;;14.85;;
56537;SDS011;42435;53.292;6.000;2022-11-21T00:46:31;22.73;;;14.18;;
56537;SDS011;42435;53.292;6.000;2022-11-21T00:48:57;24.15;;;14.73;;
56537;SDS011;42435;53.292;6.000;2022-11-21T00:51:22;26.25;;;15.32;;
56537;SDS011;42435;53.292;6.000;2022-11-21T00:53:48;26.65;;;15.88;;
56537;SDS011;42435;53.292;6.000;2022-11-21T00:56:13;23.98;;;14.70;;
56537;SDS011;42435;53.292;6.000;2022-11-21T00:58:39;22.17;;;14.38;;
56537;SDS011;42435;53.292;6.000;2022-11-21T01:01:06;24.55;;;15.02;;
56537;SDS011;42435;53.292;6.000;2022-11-21T01:03:36;22.20;;;14.52;;
56537;SDS011;42435;53.292;6.000;2022-11-21T01:06:11;27.42;;;16.30;;
56537;SDS011;42435;53.292;6.000;2022-11-21T01:08:39;26.10;;;16.02;;
56537;SDS011;42435;53.292;6.000;2022-11-21T01:11:07;28.90;;;16.70;;
56537;SDS011;42435;53.292;6.000;2022-11-21T01:13:38;29.15;;;14.98;;
56537;SDS011;42435;53.292;6.000;2022-11-21T01:16:05;23.27;;;14.63;;
56537;SDS011;42435;53.292;6.000;2022-11-21T01:18:38;25.05;;;15.65;;
56537;SDS011;42435;53.292;6.000;2022-11-21T01:21:05;27.75;;;15.85;;
56537;SDS011;42435;53.292;6.000;2022-11-21T01:23:36;25.60;;;15.18;;
56537;SDS011;42435;53.292;6.000;2022-11-21T01:26:03;29.67;;;16.40;;
56537;SDS011;42435;53.292;6.000;2022-11-21T01:28:30;25.52;;;15.00;;
56537;SDS011;42435;53.292;6.000;2022-11-21T01:31:06;22.35;;;14.35;;
56537;SDS011;42435;53.292;6.000;2022-11-21T01:33:36;24.77;;;15.77;;
56537;SDS011;42435;53.292;6.000;2022-11-21T01:36:07;26.95;;;15.98;;
56537;SDS011;42435;53.292;6.000;2022-11-21T01:38:38;26.63;;;15.20;;
56537;SDS011;42435;53.292;6.000;2022-11-21T01:41:05;25.17;;;15.18;;
56537;SDS011;42435;53.292;6.000;2022-11-21T01:43:31;25.35;;;15.68;;
56537;SDS011;42435;53.292;6.000;2022-11-21T01:45:58;26.50;;;16.05;;
56537;SDS011;42435;53.292;6.000;2022-11-21T01:48:25;23.20;;;13.95;;
56537;SDS011;42435;53.292;6.000;2022-11-21T01:54:05;26.48;;;16.48;;
56537;SDS011;42435;53.292;6.000;2022-11-21T01:57:00;26.20;;;15.98;;
56537;SDS011;42435;53.292;6.000;2022-11-21T01:59:35;26.75;;;15.32;;
56537;SDS011;42435;53.292;6.000;2022-11-21T02:02:12;26.02;;;15.93;;
56537;SDS011;42435;53.292;6.000;2022-11-21T02:04:44;29.83;;;17.67;;
56537;SDS011;42435;53.292;6.000;2022-11-21T02:07:12;29.63;;;16.77;;
56537;SDS011;42435;53.292;6.000;2022-11-21T02:09:40;26.73;;;15.05;;
56537;SDS011;42435;53.292;6.000;2022-11-21T02:12:15;27.33;;;15.15;;
56537;SDS011;42435;53.292;6.000;2022-11-21T02:14:47;28.70;;;16.92;;
56537;SDS011;42435;53.292;6.000;2022-11-21T02:17:16;32.13;;;17.60;;
56537;SDS011;42435;53.292;6.000;2022-11-21T02:25:24;30.80;;;16.58;;
56537;SDS011;42435;53.292;6.000;2022-11-21T02:27:52;24.05;;;15.48;;
56537;SDS011;42435;53.292;6.000;2022-11-21T02:30:22;31.63;;;16.80;;
56537;SDS011;42435;53.292;6.000;2022-11-21T02:32:48;26.25;;;15.98;;
56537;SDS011;42435;53.292;6.000;2022-11-21T02:35:14;27.67;;;15.10;;
56537;SDS011;42435;53.292;6.000;2022-11-21T02:37:42;28.75;;;15.80;;
56537;SDS011;42435;53.292;6.000;2022-11-21T02:40:12;25.55;;;16.65;;
56537;SDS011;42435;53.292;6.000;2022-11-21T02:45:22;29.23;;;15.63;;
56537;SDS011;42435;53.292;6.000;2022-11-21T02:47:53;30.23;;;17.60;;
56537;SDS011;42435;53.292;6.000;2022-11-21T02:50:28;30.35;;;17.10;;
56537;SDS011;42435;53.292;6.000;2022-11-21T02:52:55;32.50;;;17.98;;
56537;SDS011;42435;53.292;6.000;2022-11-21T02:55:21;32.15;;;16.15;;
56537;SDS011;42435;53.292;6.000;2022-11-21T02:57:48;30.17;;;17.52;;
56537;SDS011;42435;53.292;6.000;2022-11-21T03:00:13;33.28;;;18.75;;
56537;SDS011;42435;53.292;6.000;2022-11-21T03:02:40;32.55;;;17.58;;
56537;SDS011;42435;53.292;6.000;2022-11-21T03:05:06;29.20;;;16.67;;
56537;SDS011;42435;53.292;6.000;2022-11-21T03:07:33;29.23;;;17.30;;
56537;SDS011;42435;53.292;6.000;2022-11-21T03:09:59;31.10;;;18.05;;
56537;SDS011;42435;53.292;6.000;2022-11-21T03:12:24;32.35;;;18.85;;
56537;SDS011;42435;53.292;6.000;2022-11-21T03:14:50;29.80;;;18.15;;
56537;SDS011;42435;53.292;6.000;2022-11-21T03:17:15;31.92;;;18.80;;
56537;SDS011;42435;53.292;6.000;2022-11-21T03:19:41;29.90;;;17.98;;
56537;SDS011;42435;53.292;6.000;2022-11-21T03:22:07;34.30;;;17.73;;
56537;SDS011;42435;53.292;6.000;2022-11-21T03:24:32;33.63;;;18.50;;
56537;SDS011;42435;53.292;6.000;2022-11-21T03:26:59;33.75;;;18.13;;
56537;SDS011;42435;53.292;6.000;2022-11-21T03:29:25;29.48;;;17.20;;
56537;SDS011;42435;53.292;6.000;2022-11-21T03:31:50;34.30;;;19.00;;
56537;SDS011;42435;53.292;6.000;2022-11-21T03:34:16;32.75;;;18.52;;
56537;SDS011;42435;53.292;6.000;2022-11-21T03:36:41;29.83;;;17.75;;
56537;SDS011;42435;53.292;6.000;2022-11-21T03:39:07;32.95;;;17.25;;
56537;SDS011;42435;53.292;6.000;2022-11-21T03:41:33;31.23;;;18.30;;
56537;SDS011;42435;53.292;6.000;2022-11-21T03:44:02;34.25;;;18.63;;
56537;SDS011;42435;53.292;6.000;2022-11-21T03:46:34;32.60;;;18.83;;
56537;SDS011;42435;53.292;6.000;2022-11-21T03:49:01;31.45;;;18.42;;
56537;SDS011;42435;53.292;6.000;2022-11-21T03:51:27;33.47;;;18.40;;
56537;SDS011;42435;53.292;6.000;2022-11-21T03:53:53;31.23;;;18.60;;
56537;SDS011;42435;53.292;6.000;2022-11-21T03:56:19;35.13;;;19.20;;
56537;SDS011;42435;53.292;6.000;2022-11-21T03:58:44;33.25;;;19.02;;
56537;SDS011;42435;53.292;6.000;2022-11-21T04:01:10;35.63;;;18.85;;
56537;SDS011;42435;53.292;6.000;2022-11-21T04:03:43;37.97;;;20.73;;
56537;SDS011;42435;53.292;6.000;2022-11-21T04:06:13;41.70;;;21.48;;
56537;SDS011;42435;53.292;6.000;2022-11-21T04:08:40;39.50;;;20.63;;
56537;SDS011;42435;53.292;6.000;2022-11-21T04:11:05;35.15;;;20.65;;
56537;SDS011;42435;53.292;6.000;2022-11-21T04:13:31;40.75;;;22.67;;
56537;SDS011;42435;53.292;6.000;2022-11-21T04:15:57;41.42;;;23.05;;
56537;SDS011;42435;53.292;6.000;2022-11-21T04:18:26;39.20;;;22.60;;
56537;SDS011;42435;53.292;6.000;2022-11-21T04:20:58;43.67;;;22.67;;
56537;SDS011;42435;53.292;6.000;2022-11-21T04:23:25;39.30;;;22.63;;
56537;SDS011;42435;53.292;6.000;2022-11-21T04:25:51;45.08;;;24.13;;
56537;SDS011;42435;53.292;6.000;2022-11-21T04:28:17;45.45;;;23.90;;
56537;SDS011;42435;53.292;6.000;2022-11-21T04:30:45;38.70;;;21.10;;
56537;SDS011;42435;53.292;6.000;2022-11-21T04:33:11;41.63;;;22.35;;
56537;SDS011;42435;53.292;6.000;2022-11-21T04:35:38;43.35;;;21.67;;
56537;SDS011;42435;53.292;6.000;2022-11-21T04:38:04;40.92;;;21.73;;
56537;SDS011;42435;53.292;6.000;2022-11-21T04:40:30;44.20;;;22.85;;
56537;SDS011;42435;53.292;6.000;2022-11-21T04:42:55;39.92;;;20.42;;
56537;SDS011;42435;53.292;6.000;2022-11-21T04:45:21;41.25;;;22.40;;
56537;SDS011;42435;53.292;6.000;2022-11-21T04:47:46;37.10;;;21.42;;
56537;SDS011;42435;53.292;6.000;2022-11-21T04:50:15;37.30;;;20.25;;
56537;SDS011;42435;53.292;6.000;2022-11-21T04:52:42;41.65;;;22.33;;
56537;SDS011;42435;53.292;6.000;2022-11-21T04:55:16;41.37;;;21.17;;
56537;SDS011;42435;53.292;6.000;2022-11-21T04:57:43;42.00;;;22.35;;
56537;SDS011;42435;53.292;6.000;2022-11-21T05:00:09;45.22;;;23.90;;
56537;SDS011;42435;53.292;6.000;2022-11-21T05:02:35;45.15;;;24.58;;
56537;SDS011;42435;53.292;6.000;2022-11-21T05:05:01;47.80;;;24.98;;
56537;SDS011;42435;53.292;6.000;2022-11-21T05:07:26;44.05;;;22.77;;
56537;SDS011;42435;53.292;6.000;2022-11-21T05:09:52;49.95;;;24.17;;
56537;SDS011;42435;53.292;6.000;2022-11-21T05:12:17;47.03;;;24.88;;
56537;SDS011;42435;53.292;6.000;2022-11-21T05:15:02;44.42;;;22.88;;
56537;SDS011;42435;53.292;6.000;2022-11-21T05:17:28;50.22;;;25.38;;
56537;SDS011;42435;53.292;6.000;2022-11-21T05:19:53;50.25;;;23.50;;
56537;SDS011;42435;53.292;6.000;2022-11-21T05:22:19;50.53;;;24.60;;
56537;SDS011;42435;53.292;6.000;2022-11-21T05:24:45;47.35;;;23.77;;
56537;SDS011;42435;53.292;6.000;2022-11-21T05:27:10;45.20;;;26.08;;
56537;SDS011;42435;53.292;6.000;2022-11-21T05:29:36;49.40;;;26.63;;
56537;SDS011;42435;53.292;6.000;2022-11-21T05:32:01;46.45;;;25.90;;
56537;SDS011;42435;53.292;6.000;2022-11-21T05:34:27;48.22;;;25.70;;
56537;SDS011;42435;53.292;6.000;2022-11-21T05:36:53;50.70;;;24.63;;
56537;SDS011;42435;53.292;6.000;2022-11-21T05:39:24;50.88;;;24.52;;
56537;SDS011;42435;53.292;6.000;2022-11-21T05:41:50;51.95;;;24.50;;
56537;SDS011;42435;53.292;6.000;2022-11-21T05:44:16;54.15;;;25.83;;
56537;SDS011;42435;53.292;6.000;2022-11-21T05:46:42;49.55;;;25.48;;
56537;SDS011;42435;53.292;6.000;2022-11-21T05:49:08;49.72;;;25.88;;
56537;SDS011;42435;53.292;6.000;2022-11-21T05:51:34;49.75;;;25.52;;
56537;SDS011;42435;53.292;6.000;2022-11-21T05:53:59;49.40;;;25.30;;
56537;SDS011;42435;53.292;6.000;2022-11-21T05:56:25;46.08;;;24.27;;
56537;SDS011;42435;53.292;6.000;2022-11-21T05:58:53;53.97;;;25.92;;
56537;SDS011;42435;53.292;6.000;2022-11-21T06:01:19;49.42;;;25.67;;
56537;SDS011;42435;53.292;6.000;2022-11-21T06:04:04;51.45;;;26.35;;
56537;SDS011;42435;53.292;6.000;2022-11-21T06:06:31;54.47;;;25.92;;
56537;SDS011;42435;53.292;6.000;2022-11-21T06:08:56;51.50;;;26.30;;
56537;SDS011;42435;53.292;6.000;2022-11-21T06:11:22;51.28;;;27.00;;
56537;SDS011;42435;53.292;6.000;2022-11-21T06:13:47;48.63;;;25.80;;
56537;SDS011;42435;53.292;6.000;2022-11-21T06:16:14;55.08;;;31.00;;
56537;SDS011;42435;53.292;6.000;2022-11-21T06:18:43;55.97;;;26.27;;
56537;SDS011;42435;53.292;6.000;2022-11-21T06:21:13;48.15;;;25.88;;
56537;SDS011;42435;53.292;6.000;2022-11-21T06:23:39;50.22;;;24.88;;
56537;SDS011;42435;53.292;6.000;2022-11-21T06:26:06;49.25;;;25.63;;
56537;SDS011;42435;53.292;6.000;2022-11-21T06:28:36;50.03;;;25.90;;
56537;SDS011;42435;53.292;6.000;2022-11-21T06:31:06;49.25;;;25.35;;
56537;SDS011;42435;53.292;6.000;2022-11-21T06:33:34;50.55;;;27.60;;
56537;SDS011;42435;53.292;6.000;2022-11-21T06:36:01;46.90;;;24.17;;
56537;SDS011;42435;53.292;6.000;2022-11-21T06:38:31;53.58;;;26.50;;
56537;SDS011;42435;53.292;6.000;2022-11-21T06:40:57;48.53;;;24.38;;
56537;SDS011;42435;53.292;6.000;2022-11-21T06:43:27;48.53;;;25.48;;
56537;SDS011;42435;53.292;6.000;2022-11-21T06:45:54;61.30;;;34.65;;
56537;SDS011;42435;53.292;6.000;2022-11-21T06:48:20;55.97;;;30.40;;
56537;SDS011;42435;53.292;6.000;2022-11-21T06:50:45;59.20;;;32.30;;
56537;SDS011;42435;53.292;6.000;2022-11-21T06:53:11;57.40;;;31.15;;
56537;SDS011;42435;53.292;6.000;2022-11-21T06:55:37;57.67;;;32.25;;
56537;SDS011;42435;53.292;6.000;2022-11-21T06:58:02;49.83;;;26.33;;
56537;SDS011;42435;53.292;6.000;2022-11-21T07:00:28;47.45;;;25.75;;
56537;SDS011;42435;53.292;6.000;2022-11-21T07:02:54;51.63;;;27.33;;
56537;SDS011;42435;53.292;6.000;2022-11-21T07:05:23;50.60;;;25.50;;
56537;SDS011;42435;53.292;6.000;2022-11-21T07:07:49;45.88;;;24.85;;
56537;SDS011;42435;53.292;6.000;2022-11-21T07:10:14;55.47;;;30.70;;
56537;SDS011;42435;53.292;6.000;2022-11-21T07:12:40;52.33;;;27.50;;
56537;SDS011;42435;53.292;6.000;2022-11-21T07:15:24;51.67;;;25.58;;
56537;SDS011;42435;53.292;6.000;2022-11-21T07:17:50;50.28;;;25.45;;
56537;SDS011;42435;53.292;6.000;2022-11-21T07:20:15;50.10;;;25.10;;
56537;SDS011;42435;53.292;6.000;2022-11-21T07:22:41;52.40;;;25.10;;
56537;SDS011;42435;53.292;6.000;2022-11-21T07:25:07;51.13;;;26.30;;
56537;SDS011;42435;53.292;6.000;2022-11-21T07:27:33;46.55;;;23.95;;
56537;SDS011;42435;53.292;6.000;2022-11-21T07:29:58;53.10;;;24.88;;
56537;SDS011;42435;53.292;6.000;2022-11-21T07:32:24;53.78;;;25.05;;
56537;SDS011;42435;53.292;6.000;2022-11-21T07:34:50;50.80;;;26.30;;
56537;SDS011;42435;53.292;6.000;2022-11-21T07:37:15;52.65;;;25.23;;
56537;SDS011;42435;53.292;6.000;2022-11-21T07:39:41;52.53;;;25.08;;
56537;SDS011;42435;53.292;6.000;2022-11-21T07:42:07;50.17;;;24.80;;
56537;SDS011;42435;53.292;6.000;2022-11-21T07:44:32;52.85;;;26.52;;
56537;SDS011;42435;53.292;6.000;2022-11-21T07:46:58;59.53;;;27.70;;
56537;SDS011;42435;53.292;6.000;2022-11-21T07:49:23;56.22;;;28.02;;
56537;SDS011;42435;53.292;6.000;2022-11-21T07:51:49;58.08;;;27.80;;
56537;SDS011;42435;53.292;6.000;2022-11-21T07:54:15;54.90;;;28.40;;
56537;SDS011;42435;53.292;6.000;2022-11-21T07:56:40;57.47;;;27.95;;
56537;SDS011;42435;53.292;6.000;2022-11-21T07:59:06;58.63;;;27.80;;
56537;SDS011;42435;53.292;6.000;2022-11-21T08:01:31;48.92;;;24.20;;
56537;SDS011;42435;53.292;6.000;2022-11-21T08:03:57;57.83;;;28.23;;
56537;SDS011;42435;53.292;6.000;2022-11-21T08:06:23;51.60;;;26.88;;
56537;SDS011;42435;53.292;6.000;2022-11-21T08:08:52;58.72;;;29.50;;
56537;SDS011;42435;53.292;6.000;2022-11-21T08:11:18;52.58;;;26.42;;
56537;SDS011;42435;53.292;6.000;2022-11-21T08:13:44;58.90;;;29.42;;
56537;SDS011;42435;53.292;6.000;2022-11-21T08:16:12;56.90;;;29.58;;
56537;SDS011;42435;53.292;6.000;2022-11-21T08:18:38;54.42;;;27.77;;
56537;SDS011;42435;53.292;6.000;2022-11-21T08:21:04;54.53;;;27.13;;
56537;SDS011;42435;53.292;6.000;2022-11-21T08:23:30;52.78;;;27.27;;
56537;SDS011;42435;53.292;6.000;2022-11-21T08:25:56;51.63;;;26.77;;
56537;SDS011;42435;53.292;6.000;2022-11-21T08:28:22;54.78;;;26.55;;
56537;SDS011;42435;53.292;6.000;2022-11-21T08:30:48;52.60;;;27.00;;
56537;SDS011;42435;53.292;6.000;2022-11-21T08:33:13;48.72;;;25.70;;
56537;SDS011;42435;53.292;6.000;2022-11-21T08:35:39;51.33;;;26.50;;
56537;SDS011;42435;53.292;6.000;2022-11-21T08:38:06;53.88;;;27.30;;
56537;SDS011;42435;53.292;6.000;2022-11-21T08:40:32;61.28;;;32.03;;
56537;SDS011;42435;53.292;6.000;2022-11-21T08:43:00;57.33;;;28.08;;
56537;SDS011;42435;53.292;6.000;2022-11-21T08:45:27;122.65;;;63.65;;
56537;SDS011;42435;53.292;6.000;2022-11-21T08:47:54;86.53;;;45.42;;
56537;SDS011;42435;53.292;6.000;2022-11-21T08:50:19;53.22;;;27.88;;
56537;SDS011;42435;53.292;6.000;2022-11-21T08:52:46;48.97;;;26.45;;
56537;SDS011;42435;53.292;6.000;2022-11-21T08:55:12;50.15;;;26.98;;
56537;SDS011;42435;53.292;6.000;2022-11-21T08:57:38;46.83;;;25.25;;
56537;SDS011;42435;53.292;6.000;2022-11-21T09:00:05;48.20;;;25.55;;
56537;SDS011;42435;53.292;6.000;2022-11-21T09:02:32;46.55;;;25.10;;
56537;SDS011;42435;53.292;6.000;2022-11-21T09:04:58;49.50;;;24.05;;
56537;SDS011;42435;53.292;6.000;2022-11-21T09:07:24;41.97;;;22.65;;
56537;SDS011;42435;53.292;6.000;2022-11-21T09:09:50;48.55;;;25.17;;
56537;SDS011;42435;53.292;6.000;2022-11-21T09:12:15;46.30;;;24.35;;
56537;SDS011;42435;53.292;6.000;2022-11-21T09:14:41;46.92;;;24.15;;
56537;SDS011;42435;53.292;6.000;2022-11-21T09:17:25;43.95;;;23.95;;
56537;SDS011;42435;53.292;6.000;2022-11-21T09:20:09;48.92;;;23.98;;
56537;SDS011;42435;53.292;6.000;2022-11-21T09:22:35;46.13;;;24.20;;
56537;SDS011;42435;53.292;6.000;2022-11-21T09:25:00;48.38;;;25.42;;
56537;SDS011;42435;53.292;6.000;2022-11-21T09:27:26;47.40;;;23.92;;
56537;SDS011;42435;53.292;6.000;2022-11-21T09:29:52;43.22;;;24.23;;
56537;SDS011;42435;53.292;6.000;2022-11-21T09:32:18;48.55;;;24.77;;
56537;SDS011;42435;53.292;6.000;2022-11-21T09:34:43;49.85;;;25.70;;
56537;SDS011;42435;53.292;6.000;2022-11-21T09:37:09;47.55;;;26.48;;
56537;SDS011;42435;53.292;6.000;2022-11-21T09:39:35;46.17;;;24.33;;
56537;SDS011;42435;53.292;6.000;2022-11-21T09:47:43;47.63;;;25.17;;
56537;SDS011;42435;53.292;6.000;2022-11-21T09:52:43;45.78;;;23.58;;
56537;SDS011;42435;53.292;6.000;2022-11-21T10:00:56;42.70;;;22.55;;
56537;SDS011;42435;53.292;6.000;2022-11-21T10:03:23;47.40;;;24.05;;
56537;SDS011;42435;53.292;6.000;2022-11-21T10:05:53;46.05;;;23.52;;
56537;SDS011;42435;53.292;6.000;2022-11-21T10:08:40;42.30;;;23.67;;
56537;SDS011;42435;53.292;6.000;2022-11-21T10:17:23;46.05;;;24.33;;
56537;SDS011;42435;53.292;6.000;2022-11-21T10:20:26;40.72;;;21.23;;
56537;SDS011;42435;53.292;6.000;2022-11-21T10:23:02;41.42;;;21.67;;
56537;SDS011;42435;53.292;6.000;2022-11-21T10:25:29;45.50;;;22.95;;
56537;SDS011;42435;53.292;6.000;2022-11-21T10:28:13;39.72;;;22.52;;
56537;SDS011;42435;53.292;6.000;2022-11-21T10:30:45;39.40;;;21.48;;
56537;SDS011;42435;53.292;6.000;2022-11-21T10:33:17;45.20;;;22.80;;
56537;SDS011;42435;53.292;6.000;2022-11-21T10:35:56;39.17;;;21.92;;
56537;SDS011;42435;53.292;6.000;2022-11-21T10:38:29;36.13;;;19.58;;
56537;SDS011;42435;53.292;6.000;2022-11-21T10:41:03;41.13;;;27.38;;
56537;SDS011;42435;53.292;6.000;2022-11-21T10:43:43;38.35;;;21.52;;
56537;SDS011;42435;53.292;6.000;2022-11-21T10:46:33;32.13;;;19.25;;
56537;SDS011;42435;53.292;6.000;2022-11-21T10:49:00;39.95;;;21.67;;
56537;SDS011;42435;53.292;6.000;2022-11-21T10:54:10;38.70;;;20.67;;
56537;SDS011;42435;53.292;6.000;2022-11-21T10:59:24;33.33;;;20.05;;
56537;SDS011;42435;53.292;6.000;2022-11-21T11:02:09;33.92;;;20.23;;
56537;SDS011;42435;53.292;6.000;2022-11-21T11:05:24;35.13;;;19.48;;
56537;SDS011;42435;53.292;6.000;2022-11-21T11:10:26;30.52;;;17.40;;
56537;SDS011;42435;53.292;6.000;2022-11-21T11:12:52;30.60;;;17.45;;
56537;SDS011;42435;53.292;6.000;2022-11-21T11:15:38;31.80;;;19.27;;
56537;SDS011;42435;53.292;6.000;2022-11-21T11:18:19;28.30;;;17.05;;
56537;SDS011;42435;53.292;6.000;2022-11-21T11:20:47;26.63;;;15.65;;
56537;SDS011;42435;53.292;6.000;2022-11-21T11:25:45;27.55;;;17.05;;
56537;SDS011;42435;53.292;6.000;2022-11-21T11:28:13;24.83;;;15.23;;
56537;SDS011;42435;53.292;6.000;2022-11-21T11:30:39;27.23;;;16.15;;
56537;SDS011;42435;53.292;6.000;2022-11-21T11:36:02;25.45;;;15.00;;
56537;SDS011;42435;53.292;6.000;2022-11-21T11:38:54;24.38;;;14.23;;
56537;SDS011;42435;53.292;6.000;2022-11-21T11:47:58;20.75;;;13.10;;
56537;SDS011;42435;53.292;6.000;2022-11-21T11:50:38;23.92;;;15.20;;
56537;SDS011;42435;53.292;6.000;2022-11-21T11:53:23;22.60;;;14.52;;
56537;SDS011;42435;53.292;6.000;2022-11-21T11:58:45;24.10;;;14.68;;
56537;SDS011;42435;53.292;6.000;2022-11-21T12:04:17;22.15;;;13.63;;
56537;SDS011;42435;53.292;6.000;2022-11-21T12:06:54;25.52;;;15.25;;
56537;SDS011;42435;53.292;6.000;2022-11-21T12:12:11;21.83;;;12.55;;
56537;SDS011;42435;53.292;6.000;2022-11-21T12:15:09;18.98;;;12.02;;
56537;SDS011;42435;53.292;6.000;2022-11-21T12:20:40;21.77;;;12.95;;
56537;SDS011;42435;53.292;6.000;2022-11-21T12:37:03;18.27;;;11.50;;
56537;SDS011;42435;53.292;6.000;2022-11-21T12:45:33;21.83;;;13.02;;
56537;SDS011;42435;53.292;6.000;2022-11-21T12:48:25;19.83;;;12.82;;
56537;SDS011;42435;53.292;6.000;2022-11-21T12:57:15;33.33;;;21.13;;
56537;SDS011;42435;53.292;6.000;2022-11-21T13:02:32;27.77;;;16.60;;
56537;SDS011;42435;53.292;6.000;2022-11-21T13:05:09;24.25;;;15.45;;
56537;SDS011;42435;53.292;6.000;2022-11-21T13:07:40;18.55;;;11.57;;
56537;SDS011;42435;53.292;6.000;2022-11-21T13:10:10;19.95;;;13.40;;
56537;SDS011;42435;53.292;6.000;2022-11-21T13:18:40;23.15;;;12.50;;
56537;SDS011;42435;53.292;6.000;2022-11-21T13:24:04;19.15;;;12.23;;
56537;SDS011;42435;53.292;6.000;2022-11-21T13:29:11;21.75;;;13.60;;
56537;SDS011;42435;53.292;6.000;2022-11-21T13:31:38;18.30;;;11.23;;
56537;SDS011;42435;53.292;6.000;2022-11-21T13:34:08;15.98;;;10.68;;
56537;SDS011;42435;53.292;6.000;2022-11-21T13:36:50;16.42;;;10.55;;
56537;SDS011;42435;53.292;6.000;2022-11-21T13:55:02;21.73;;;13.73;;
56537;SDS011;42435;53.292;6.000;2022-11-21T14:00:28;22.73;;;12.27;;
56537;SDS011;42435;53.292;6.000;2022-11-21T14:14:30;21.25;;;12.98;;
56537;SDS011;42435;53.292;6.000;2022-11-21T14:19:47;18.83;;;12.05;;
56537;SDS011;42435;53.292;6.000;2022-11-21T14:25:00;21.80;;;13.25;;
56537;SDS011;42435;53.292;6.000;2022-11-21T14:27:31;23.25;;;14.35;;
56537;SDS011;42435;53.292;6.000;2022-11-21T14:30:00;21.52;;;13.43;;
56537;SDS011;42435;53.292;6.000;2022-11-21T14:32:26;22.25;;;13.25;;
56537;SDS011;42435;53.292;6.000;2022-11-21T14:35:06;21.75;;;13.02;;
56537;SDS011;42435;53.292;6.000;2022-11-21T14:37:42;28.13;;;15.05;;
56537;SDS011;42435;53.292;6.000;2022-11-21T14:40:11;23.02;;;13.88;;
56537;SDS011;42435;53.292;6.000;2022-11-21T14:42:43;26.75;;;14.38;;
56537;SDS011;42435;53.292;6.000;2022-11-21T14:45:16;25.45;;;14.52;;
56537;SDS011;42435;53.292;6.000;2022-11-21T14:50:27;27.35;;;15.25;;
56537;SDS011;42435;53.292;6.000;2022-11-21T14:52:55;25.83;;;14.65;;
56537;SDS011;42435;53.292;6.000;2022-11-21T14:55:32;26.80;;;15.18;;
56537;SDS011;42435;53.292;6.000;2022-11-21T14:57:58;25.33;;;15.32;;
56537;SDS011;42435;53.292;6.000;2022-11-21T15:00:27;28.05;;;14.82;;
56537;SDS011;42435;53.292;6.000;2022-11-21T15:02:55;28.65;;;15.20;;
56537;SDS011;42435;53.292;6.000;2022-11-21T15:05:27;32.17;;;15.98;;
56537;SDS011;42435;53.292;6.000;2022-11-21T15:07:57;31.15;;;16.45;;
56537;SDS011;42435;53.292;6.000;2022-11-21T15:10:29;28.85;;;16.40;;
56537;SDS011;42435;53.292;6.000;2022-11-21T15:13:04;25.38;;;14.45;;
56537;SDS011;42435;53.292;6.000;2022-11-21T15:15:37;31.23;;;16.08;;
56537;SDS011;42435;53.292;6.000;2022-11-21T15:18:06;30.88;;;16.92;;
56537;SDS011;42435;53.292;6.000;2022-11-21T15:20:38;35.33;;;17.52;;
56537;SDS011;42435;53.292;6.000;2022-11-21T15:23:04;30.13;;;16.52;;
56537;SDS011;42435;53.292;6.000;2022-11-21T15:25:43;39.60;;;19.98;;
56537;SDS011;42435;53.292;6.000;2022-11-21T15:28:15;34.42;;;18.08;;
56537;SDS011;42435;53.292;6.000;2022-11-21T15:30:43;31.35;;;17.25;;
56537;SDS011;42435;53.292;6.000;2022-11-21T15:33:13;33.67;;;17.50;;
56537;SDS011;42435;53.292;6.000;2022-11-21T15:35:50;31.20;;;17.05;;
56537;SDS011;42435;53.292;6.000;2022-11-21T15:40:56;33.83;;;16.75;;
56537;SDS011;42435;53.292;6.000;2022-11-21T15:46:14;37.10;;;18.05;;
56537;SDS011;42435;53.292;6.000;2022-11-21T15:48:43;39.38;;;17.98;;
56537;SDS011;42435;53.292;6.000;2022-11-21T15:51:13;42.78;;;19.77;;
56537;SDS011;42435;53.292;6.000;2022-11-21T15:53:39;39.33;;;20.02;;
56537;SDS011;42435;53.292;6.000;2022-11-21T15:56:05;47.13;;;20.30;;
56537;SDS011;42435;53.292;6.000;2022-11-21T15:58:31;45.35;;;23.13;;
56537;SDS011;42435;53.292;6.000;2022-11-21T16:00:57;43.13;;;23.55;;
56537;SDS011;42435;53.292;6.000;2022-11-21T16:03:22;44.42;;;22.00;;
56537;SDS011;42435;53.292;6.000;2022-11-21T16:05:48;46.58;;;23.35;;
56537;SDS011;42435;53.292;6.000;2022-11-21T16:08:13;39.28;;;19.33;;
56537;SDS011;42435;53.292;6.000;2022-11-21T16:10:39;42.15;;;18.63;;
56537;SDS011;42435;53.292;6.000;2022-11-21T16:13:04;39.95;;;19.80;;
56537;SDS011;42435;53.292;6.000;2022-11-21T16:15:30;55.78;;;26.60;;
56537;SDS011;42435;53.292;6.000;2022-11-21T16:17:56;50.17;;;23.08;;
56537;SDS011;42435;53.292;6.000;2022-11-21T16:20:21;47.60;;;21.13;;
56537;SDS011;42435;53.292;6.000;2022-11-21T16:22:47;41.15;;;19.17;;
56537;SDS011;42435;53.292;6.000;2022-11-21T16:25:12;44.08;;;21.00;;
56537;SDS011;42435;53.292;6.000;2022-11-21T16:27:38;55.17;;;20.40;;
56537;SDS011;42435;53.292;6.000;2022-11-21T16:30:04;55.63;;;19.92;;
56537;SDS011;42435;53.292;6.000;2022-11-21T16:32:30;50.20;;;20.17;;
56537;SDS011;42435;53.292;6.000;2022-11-21T16:34:56;50.40;;;20.77;;
56537;SDS011;42435;53.292;6.000;2022-11-21T16:37:22;58.60;;;21.80;;
56537;SDS011;42435;53.292;6.000;2022-11-21T16:39:48;48.97;;;21.67;;
56537;SDS011;42435;53.292;6.000;2022-11-21T16:42:16;54.50;;;21.42;;
56537;SDS011;42435;53.292;6.000;2022-11-21T16:44:42;64.63;;;23.02;;
56537;SDS011;42435;53.292;6.000;2022-11-21T16:47:08;53.97;;;22.33;;
56537;SDS011;42435;53.292;6.000;2022-11-21T16:49:34;55.15;;;22.77;;
56537;SDS011;42435;53.292;6.000;2022-11-21T16:52:00;55.53;;;23.05;;
56537;SDS011;42435;53.292;6.000;2022-11-21T16:54:26;72.15;;;24.60;;
56537;SDS011;42435;53.292;6.000;2022-11-21T16:56:51;61.42;;;22.75;;